Time;durP1;ratioP1;P1;durP2;ratioP2;P2;SDS_P1;SDS_P2;PMS_P1;PMS_P2;Temp;Humidity;BMP_temperature;BMP_pressure;BME280_temperature;BME280_humidity;BME280_pressure;Samples;Min_cycle;Max_cycle;Signal;HPM_P1;HPM_P2
2021/12/22 00:01:28;;;;;;;27.23;14.40;;;;;;;-2.50;84.00;101733.50;1756506;81;21135;-71
2021/12/22 00:03:55;;;;;;;29.57;15.93;;;;;;;-2.57;84.04;101729.38;1756537;81;21454;-71
2021/12/22 00:06:26;;;;;;;27.00;14.77;;;;;;;-2.63;84.08;101731.69;1756794;81;21019;-72
2021/12/22 00:08:52;;;;;;;27.20;16.20;;;;;;;-2.70;84.18;101726.75;1756593;81;21051;-77
2021/12/22 00:11:20;;;;;;;27.13;15.17;;;;;;;-2.75;84.19;101732.97;1756734;81;21008;-71
2021/12/22 00:13:46;;;;;;;28.50;15.87;;;;;;;-2.80;84.29;101738.75;1756629;81;21786;-76
2021/12/22 00:16:14;;;;;;;25.97;14.77;;;;;;;-2.85;84.34;101743.72;1756719;81;20996;-71
2021/12/22 00:18:41;;;;;;;29.23;15.87;;;;;;;-2.90;84.29;101750.77;1757472;80;21071;-71
2021/12/22 00:21:09;;;;;;;33.97;16.97;;;;;;;-2.97;84.28;101750.50;1756432;81;21462;-76
2021/12/22 00:23:37;;;;;;;32.10;16.23;;;;;;;-3.02;84.27;101751.14;1756822;81;21041;-71
2021/12/22 00:26:05;;;;;;;33.57;17.57;;;;;;;-3.08;84.36;101754.33;1756527;81;21127;-71
2021/12/22 00:28:33;;;;;;;30.60;16.67;;;;;;;-3.11;84.43;101758.47;1756802;81;20878;-71
2021/12/22 00:31:01;;;;;;;31.20;16.60;;;;;;;-3.16;84.50;101757.90;1747761;80;21042;-71
2021/12/22 00:33:30;;;;;;;30.87;16.20;;;;;;;-3.18;84.63;101759.93;1782455;80;20988;-72
2021/12/22 00:35:57;;;;;;;33.37;17.73;;;;;;;-3.16;84.99;101763.02;1756302;80;21014;-71
2021/12/22 00:38:24;;;;;;;31.03;17.47;;;;;;;-3.16;84.99;101760.46;1752028;81;21933;-71
2021/12/22 00:40:51;;;;;;;33.13;16.53;;;;;;;-3.14;85.03;101770.77;1752054;81;20934;-71
2021/12/22 00:43:19;;;;;;;25.73;15.13;;;;;;;-3.10;85.35;101772.66;1751870;81;21638;-80
2021/12/22 00:45:55;;;;;;;27.87;15.67;;;;;;;-3.04;85.63;101770.33;1751911;81;20995;-71
2021/12/22 00:48:15;;;;;;;23.47;13.87;;;;;;;-2.97;85.62;101773.59;1750673;81;21492;-74
2021/12/22 00:50:42;;;;;;;25.77;13.60;;;;;;;-2.93;85.65;101774.20;1752365;81;21100;-79
2021/12/22 00:53:09;;;;;;;29.33;15.97;;;;;;;-2.86;85.62;101782.13;1752089;81;21010;-72
2021/12/22 00:55:36;;;;;;;26.47;15.27;;;;;;;-2.84;85.62;101776.25;1752185;81;21030;-70
2021/12/22 00:58:04;;;;;;;27.27;14.50;;;;;;;-2.79;85.76;101779.88;1751969;81;21018;-71
2021/12/22 01:00:32;;;;;;;25.87;13.67;;;;;;;-2.73;85.65;101783.09;1752327;81;21014;-71
2021/12/22 01:02:59;;;;;;;26.47;14.87;;;;;;;-2.70;85.86;101784.08;1752106;81;21120;-70
2021/12/22 01:05:26;;;;;;;30.67;15.57;;;;;;;-2.63;85.61;101787.78;1745605;81;21018;-70
2021/12/22 01:07:53;;;;;;;28.07;15.50;;;;;;;-2.61;85.44;101786.53;1719099;83;21521;-70
2021/12/22 01:10:28;;;;;;;29.50;15.53;;;;;;;-2.61;85.34;101786.13;1752275;81;21014;-71
2021/12/22 01:12:58;;;;;;;27.53;15.13;;;;;;;-2.60;85.45;101789.59;1752254;81;21003;-70
2021/12/22 01:15:27;;;;;;;23.75;14.03;;;;;;;-2.60;85.32;101790.88;1752392;81;21913;-70
2021/12/22 01:18:07;;;;;;;26.33;14.83;;;;;;;-2.58;85.48;101788.81;1720532;83;21022;-70
2021/12/22 01:20:38;;;;;;;25.93;14.30;;;;;;;-2.57;85.29;101789.71;1723220;83;21504;-77
2021/12/22 01:23:03;;;;;;;27.20;15.73;;;;;;;-2.57;85.31;101790.58;1751512;81;21050;-70
2021/12/22 01:25:42;;;;;;;29.83;15.40;;;;;;;-2.58;85.12;101790.09;1723592;83;21034;-70
2021/12/22 01:28:06;;;;;;;26.77;15.20;;;;;;;-2.59;85.14;101788.77;1751924;81;21113;-70
2021/12/22 01:30:33;;;;;;;25.33;14.70;;;;;;;-2.57;85.14;101785.86;1719445;83;21520;-70
2021/12/22 01:33:03;;;;;;;26.23;13.93;;;;;;;-2.60;85.09;101789.17;1752329;81;20999;-78
2021/12/22 01:35:34;;;;;;;26.95;14.30;;;;;;;-2.60;85.12;101794.31;1724058;81;21095;-78
2021/12/22 01:38:02;;;;;;;26.33;14.20;;;;;;;-2.59;85.13;101804.17;1736487;82;21015;-71
2021/12/22 01:40:31;;;;;;;26.53;14.97;;;;;;;-2.58;85.35;101795.64;1725461;83;21254;-70
2021/12/22 01:43:01;;;;;;;23.70;14.03;;;;;;;-2.54;85.35;101797.11;1706900;84;21062;-70
2021/12/22 01:46:20;;;;;;;24.43;13.95;;;;;;;-2.52;85.29;101805.75;1725619;83;21368;-70
2021/12/22 01:51:43;;;;;;;28.30;14.57;;;;;;;-2.49;85.29;101796.89;1721778;83;21272;-70
2021/12/22 01:54:36;;;;;;;28.13;15.20;;;;;;;-2.50;85.04;101799.37;1675329;85;21909;-70
2021/12/22 01:57:09;;;;;;;27.83;14.57;;;;;;;-2.56;84.78;101792.31;1676559;85;21473;-70
2021/12/22 01:59:33;;;;;;;24.87;14.17;;;;;;;-2.61;84.94;101795.52;1696306;84;21052;-70
2021/12/22 02:02:03;;;;;;;23.10;13.53;;;;;;;-2.59;85.19;101802.47;1694675;84;20988;-70
2021/12/22 02:04:29;;;;;;;20.67;12.00;;;;;;;-2.58;85.10;101796.51;1707792;84;21165;-71
2021/12/22 02:06:57;;;;;;;22.20;13.10;;;;;;;-2.56;85.16;101801.72;1707195;84;21145;-71
2021/12/22 02:09:45;;;;;;;23.60;12.83;;;;;;;-2.55;85.22;101802.17;1706870;84;21442;-70
2021/12/22 02:11:55;;;;;;;22.03;12.17;;;;;;;-2.56;84.92;101800.43;1703341;84;21004;-74
2021/12/22 02:14:22;;;;;;;21.13;12.13;;;;;;;-2.63;84.66;101802.28;1707098;84;21027;-71
2021/12/22 02:16:49;;;;;;;21.00;12.00;;;;;;;-2.73;84.38;101799.77;1706879;84;21597;-71
2021/12/22 02:19:16;;;;;;;17.47;11.13;;;;;;;-2.79;84.60;101810.67;1707023;84;22030;-76
2021/12/22 02:21:52;;;;;;;21.37;11.50;;;;;;;-2.85;84.56;101805.30;1706868;84;21553;-71
2021/12/22 02:24:15;;;;;;;21.77;11.57;;;;;;;-2.88;84.66;101805.56;1706945;84;21031;-71
2021/12/22 02:26:50;;;;;;;18.17;11.30;;;;;;;-2.92;84.54;101797.75;1706753;84;21429;-71
2021/12/22 02:29:21;;;;;;;23.38;12.28;;;;;;;-2.90;85.06;101801.67;1708782;82;21024;-75
2021/12/22 02:32:04;;;;;;;20.13;11.10;;;;;;;-2.84;85.10;101809.61;1706443;84;22073;-71
2021/12/22 02:34:22;;;;;;;20.60;12.20;;;;;;;-2.82;85.16;101802.86;1705185;84;21046;-70
2021/12/22 02:36:51;;;;;;;17.53;10.43;;;;;;;-2.78;85.14;101799.99;1725589;82;21090;-70
2021/12/22 02:39:18;;;;;;;20.03;11.20;;;;;;;-2.78;85.09;101799.58;1727277;83;21043;-78
2021/12/22 02:41:45;;;;;;;19.97;10.43;;;;;;;-2.78;84.94;101795.73;1726996;83;21031;-74
2021/12/22 02:44:14;;;;;;;18.40;10.70;;;;;;;-2.74;85.15;101795.05;1727316;83;21458;-70
2021/12/22 02:46:41;;;;;;;19.43;10.57;;;;;;;-2.67;85.21;101795.29;1727019;83;20955;-70
2021/12/22 02:49:09;;;;;;;15.73;9.83;;;;;;;-2.67;85.02;101800.01;1727223;83;21004;-78
2021/12/22 02:51:36;;;;;;;16.50;9.27;;;;;;;-2.62;84.94;101805.33;1727068;83;20916;-78
2021/12/22 02:54:19;;;;;;;17.30;9.47;;;;;;;-2.64;84.69;101800.13;1743297;81;21083;-71
2021/12/22 02:59:32;;;;;;;18.80;10.78;;;;;;;-2.66;84.58;101794.08;1757254;81;21072;-71
2021/12/22 03:02:07;;;;;;;20.77;10.27;;;;;;;-2.63;84.72;101794.58;1753502;81;21028;-71
2021/12/22 03:04:26;;;;;;;19.03;10.00;;;;;;;-2.59;84.85;101795.18;1753460;81;21033;-71
2021/12/22 03:06:58;;;;;;;17.03;10.43;;;;;;;-2.54;84.92;101799.67;1756737;81;21000;-72
2021/12/22 03:09:26;;;;;;;18.80;10.17;;;;;;;-2.54;84.71;101799.67;1756361;81;21311;-71
2021/12/22 03:11:57;;;;;;;17.93;10.37;;;;;;;-2.50;85.01;101802.81;1757160;81;21123;-79
2021/12/22 03:14:25;;;;;;;18.20;10.47;;;;;;;-2.47;84.71;101806.81;1757349;81;20996;-71
2021/12/22 03:16:54;;;;;;;18.97;10.13;;;;;;;-2.48;84.53;101805.05;1757095;81;21068;-75
2021/12/22 03:19:26;;;;;;;22.77;12.13;;;;;;;-2.49;84.64;101809.72;1733536;81;21557;-71
2021/12/22 03:21:59;;;;;;;22.33;11.13;;;;;;;-2.49;84.42;101808.85;1747581;81;21143;-74
2021/12/22 03:24:22;;;;;;;20.50;11.57;;;;;;;-2.50;84.50;101807.08;1756662;81;21001;-78
2021/12/22 03:26:49;;;;;;;17.70;11.13;;;;;;;-2.49;84.44;101808.44;1757336;81;21027;-71
2021/12/22 03:29:18;;;;;;;20.10;11.17;;;;;;;-2.50;84.41;101810.52;1757040;81;21043;-70
2021/12/22 03:31:47;;;;;;;20.53;11.33;;;;;;;-2.49;84.60;101808.44;1757358;81;21000;-78
2021/12/22 03:34:15;;;;;;;19.57;11.40;;;;;;;-2.47;84.52;101813.23;1757044;81;21476;-71
2021/12/22 03:36:43;;;;;;;19.30;11.10;;;;;;;-2.50;84.32;101809.64;1748753;81;21002;-70
2021/12/22 03:39:13;;;;;;;21.07;11.27;;;;;;;-2.54;84.20;101807.80;1745828;81;21464;-71
2021/12/22 03:41:42;;;;;;;21.17;11.40;;;;;;;-2.58;84.07;101811.91;1740639;81;28419;-71
2021/12/22 03:44:10;;;;;;;20.43;11.17;;;;;;;-2.59;84.22;101814.44;1733231;82;21031;-71
2021/12/22 03:46:37;;;;;;;18.03;10.27;;;;;;;-2.58;84.36;101817.05;1733530;82;21123;-75
2021/12/22 03:49:07;;;;;;;20.90;12.03;;;;;;;-2.59;84.27;101823.42;1733095;82;21384;-70
2021/12/22 03:51:35;;;;;;;21.27;12.00;;;;;;;-2.60;84.25;101821.27;1733519;82;21055;-74
2021/12/22 03:54:06;;;;;;;23.17;12.27;;;;;;;-2.58;84.40;101824.74;1733181;82;21074;-71
2021/12/22 03:56:33;;;;;;;21.15;10.72;;;;;;;-2.58;84.31;101822.59;1733578;82;21628;-75
2021/12/22 03:59:00;;;;;;;19.37;11.30;;;;;;;-2.59;84.27;101821.72;1733168;82;21961;-71
2021/12/22 04:01:27;;;;;;;18.23;10.07;;;;;;;-2.61;84.15;101818.62;1733208;82;20976;-71
2021/12/22 04:03:59;;;;;;;19.47;10.97;;;;;;;-2.63;84.23;101818.58;1736688;81;21091;-71
2021/12/22 04:06:23;;;;;;;18.90;10.77;;;;;;;-2.60;84.31;101824.25;1733061;82;20977;-75
2021/12/22 04:08:50;;;;;;;19.27;10.67;;;;;;;-2.58;84.29;101826.44;1733229;82;21266;-71
2021/12/22 04:11:17;;;;;;;19.23;10.17;;;;;;;-2.58;84.40;101823.46;1733331;82;21123;-72
2021/12/22 04:13:45;;;;;;;19.43;10.30;;;;;;;-2.53;84.55;101823.23;1733184;82;20996;-71
2021/12/22 04:16:12;;;;;;;20.63;10.20;;;;;;;-2.50;84.38;101828.48;1733089;82;21009;-71
2021/12/22 04:18:39;;;;;;;20.17;10.47;;;;;;;-2.49;84.20;101831.55;1733192;82;20988;-79
2021/12/22 04:21:06;;;;;;;21.27;11.87;;;;;;;-2.52;84.02;101832.71;1733315;82;21482;-71
2021/12/22 04:23:33;;;;;;;22.53;12.13;;;;;;;-2.54;84.07;101826.63;1733057;82;21121;-71
2021/12/22 04:26:00;;;;;;;19.43;10.93;;;;;;;-2.50;84.31;101823.77;1733270;82;21052;-71
2021/12/22 04:28:27;;;;;;;21.97;10.87;;;;;;;-2.48;84.53;101823.02;1733169;82;21027;-71
2021/12/22 04:30:54;;;;;;;20.97;11.23;;;;;;;-2.40;84.62;101826.30;1736920;81;21314;-72
2021/12/22 04:33:21;;;;;;;18.27;11.57;;;;;;;-2.41;84.27;101819.39;1733263;82;21004;-71
2021/12/22 04:35:50;;;;;;;19.97;10.90;;;;;;;-2.39;84.32;101824.19;1732128;82;21298;-71
2021/12/22 04:38:18;;;;;;;18.67;10.60;;;;;;;-2.40;84.19;101813.46;1727009;83;21011;-71
2021/12/22 04:40:45;;;;;;;20.47;12.30;;;;;;;-2.40;84.12;101818.18;1727506;83;21027;-71
2021/12/22 04:43:13;;;;;;;24.17;12.57;;;;;;;-2.34;84.29;101814.97;1726970;83;21518;-76
2021/12/22 04:45:40;;;;;;;18.40;9.80;;;;;;;-2.32;84.35;101818.48;1727392;83;21071;-71
2021/12/22 04:48:07;;;;;;;16.40;10.50;;;;;;;-2.30;84.07;101816.83;1727170;83;21526;-71
2021/12/22 04:50:35;;;;;;;20.37;11.10;;;;;;;-2.32;83.81;101817.20;1727257;83;21446;-71
2021/12/22 04:53:09;;;;;;;18.13;9.90;;;;;;;-2.29;84.27;101811.77;1727175;83;20919;-76
2021/12/22 04:55:31;;;;;;;18.60;10.70;;;;;;;-2.20;84.39;101824.07;1728528;81;21012;-71
2021/12/22 04:58:00;;;;;;;17.87;9.93;;;;;;;-2.17;84.24;101819.46;1729888;81;21390;-71
2021/12/22 05:00:31;;;;;;;14.53;9.13;;;;;;;-2.19;83.93;101816.86;1727305;83;21922;-75
2021/12/22 05:02:59;;;;;;;17.90;10.97;;;;;;;-2.19;83.88;101818.14;1727073;83;21039;-70
2021/12/22 05:05:27;;;;;;;21.90;10.50;;;;;;;-2.17;84.12;101823.31;1726952;83;21550;-70
2021/12/22 05:07:54;;;;;;;17.63;10.07;;;;;;;-2.16;83.86;101824.67;1727048;83;21015;-76
2021/12/22 05:10:23;;;;;;;15.03;9.63;;;;;;;-2.17;83.70;101824.59;1727033;83;20984;-71
2021/12/22 05:12:51;;;;;;;15.80;9.30;;;;;;;-2.24;83.45;101826.08;1727058;83;21133;-75
2021/12/22 05:15:21;;;;;;;15.47;9.70;;;;;;;-2.32;83.29;101822.34;1726954;83;21569;-79
2021/12/22 05:20:21;;;;;;;13.43;8.60;;;;;;;-2.40;83.71;101815.61;1727136;83;21027;-70
2021/12/22 05:22:48;;;;;;;16.77;9.77;;;;;;;-2.39;83.66;101822.48;1727138;83;21293;-70
2021/12/22 05:25:16;;;;;;;16.70;9.83;;;;;;;-2.38;83.73;101828.49;1727097;83;22243;-70
2021/12/22 05:27:43;;;;;;;15.50;9.03;;;;;;;-2.38;83.73;101837.10;1727091;83;21534;-70
2021/12/22 05:30:13;;;;;;;18.80;10.57;;;;;;;-2.38;83.79;101831.97;1738670;81;21011;-70
2021/12/22 05:32:41;;;;;;;21.52;11.75;;;;;;;-2.35;83.91;101835.93;1729233;81;21023;-76
2021/12/22 05:35:10;;;;;;;17.43;9.47;;;;;;;-2.33;83.94;101839.44;1727083;83;21008;-72
2021/12/22 05:37:39;;;;;;;15.63;9.53;;;;;;;-2.34;83.73;101837.67;1732235;82;21549;-71
2021/12/22 05:40:08;;;;;;;14.77;8.77;;;;;;;-2.34;83.87;101844.09;1733225;82;20993;-70
2021/12/22 05:42:36;;;;;;;15.25;9.40;;;;;;;-2.32;83.86;101850.17;1733729;82;21497;-71
2021/12/22 05:45:05;;;;;;;14.13;9.20;;;;;;;-2.31;84.03;101850.63;1733256;82;21067;-71
2021/12/22 05:47:32;;;;;;;13.80;9.20;;;;;;;-2.29;83.90;101855.42;1733627;82;21082;-79
2021/12/22 05:49:59;;;;;;;14.00;8.20;;;;;;;-2.30;83.88;101851.49;1733432;82;21117;-71
2021/12/22 05:52:27;;;;;;;31.97;13.97;;;;;;;-2.26;84.11;101856.81;1733246;82;21058;-75
2021/12/22 05:54:53;;;;;;;48.87;26.87;;;;;;;-2.20;84.43;101852.33;1733526;82;21484;-71
2021/12/22 05:57:21;;;;;;;97.40;30.53;;;;;;;-2.18;84.05;101848.55;1736567;81;21020;-77
2021/12/22 05:59:48;;;;;;;62.43;21.90;;;;;;;-2.15;84.09;101848.24;1733382;82;21541;-75
2021/12/22 06:02:15;;;;;;;22.20;11.73;;;;;;;-2.14;83.96;101851.69;1733600;82;21861;-75
2021/12/22 06:04:41;;;;;;;46.93;18.03;;;;;;;-2.12;84.21;101854.78;1733165;82;21003;-70
2021/12/22 06:07:08;;;;;;;82.20;31.03;;;;;;;-2.04;84.31;101853.79;1733616;82;20943;-71
2021/12/22 06:09:35;;;;;;;85.87;29.43;;;;;;;-1.98;84.28;101855.30;1733264;82;21078;-71
2021/12/22 06:12:03;;;;;;;34.47;13.50;;;;;;;-1.90;84.27;101855.17;1733737;82;21551;-73
2021/12/22 06:14:30;;;;;;;20.57;10.67;;;;;;;-1.85;84.31;101852.78;1733279;82;21127;-70
2021/12/22 06:16:57;;;;;;;24.87;12.47;;;;;;;-1.78;84.22;101857.31;1733473;82;21019;-71
2021/12/22 06:19:24;;;;;;;35.07;16.10;;;;;;;-1.73;84.21;101854.51;1733394;82;20976;-72
2021/12/22 06:21:50;;;;;;;23.60;12.40;;;;;;;-1.64;84.37;101848.40;1737594;81;21035;-70
2021/12/22 06:24:17;;;;;;;58.00;23.17;;;;;;;-1.61;84.03;101856.25;1733597;82;21157;-70
2021/12/22 06:26:44;;;;;;;115.00;44.77;;;;;;;-1.60;83.98;101850.28;1733495;82;21577;-71
2021/12/22 06:29:11;;;;;;;51.23;20.60;;;;;;;-1.57;83.75;101856.81;1733433;82;21023;-72
2021/12/22 06:31:38;;;;;;;23.07;10.40;;;;;;;-1.62;83.48;101860.91;1733595;82;21023;-75
2021/12/22 06:34:05;;;;;;;49.90;19.10;;;;;;;-1.55;83.98;101852.12;1733409;82;21033;-70
2021/12/22 06:36:33;;;;;;;29.20;14.10;;;;;;;-1.46;84.12;101857.62;1734184;82;21015;-73
2021/12/22 06:38:59;;;;;;;38.27;18.03;;;;;;;-1.40;83.93;101859.11;1736099;82;21090;-82
2021/12/22 06:41:28;;;;;;;20.07;11.03;;;;;;;-1.42;83.64;101862.03;1736127;82;20932;-79
2021/12/22 06:43:54;;;;;;;23.00;10.43;;;;;;;-1.42;83.63;101861.61;1736439;82;21083;-72
2021/12/22 06:46:22;;;;;;;25.93;12.70;;;;;;;-1.40;83.43;101861.69;1736129;82;21458;-74
2021/12/22 06:48:48;;;;;;;15.87;8.63;;;;;;;-1.43;83.24;101864.16;1736389;82;21027;-79
2021/12/22 06:51:15;;;;;;;12.73;7.63;;;;;;;-1.46;83.13;101866.62;1736166;82;21195;-74
2021/12/22 06:53:42;;;;;;;11.10;6.43;;;;;;;-1.47;83.14;101864.46;1736301;82;21039;-72
2021/12/22 06:56:09;;;;;;;11.33;6.77;;;;;;;-1.46;83.11;101866.62;1736200;82;21039;-73
2021/12/22 06:58:36;;;;;;;11.83;8.00;;;;;;;-1.46;83.04;101873.05;1736401;82;21019;-73
2021/12/22 07:01:03;;;;;;;14.50;8.23;;;;;;;-1.45;83.08;101884.66;1736165;82;20999;-74
2021/12/22 07:03:30;;;;;;;11.50;7.47;;;;;;;-1.43;83.13;101883.44;1736415;82;21928;-73
2021/12/22 07:05:57;;;;;;;10.23;6.87;;;;;;;-1.44;83.04;101889.38;1736094;82;20984;-72
2021/12/22 07:08:24;;;;;;;10.87;6.77;;;;;;;-1.47;82.96;101896.61;1736406;82;21034;-72
2021/12/22 07:10:52;;;;;;;10.60;7.33;;;;;;;-1.49;82.91;101894.38;1736020;82;21504;-72
2021/12/22 07:13:19;;;;;;;12.93;7.73;;;;;;;-1.49;83.03;101897.38;1736063;82;21038;-72
2021/12/22 07:15:47;;;;;;;11.23;7.50;;;;;;;-1.50;83.11;101892.61;1736562;82;21281;-73
2021/12/22 07:18:14;;;;;;;13.07;6.73;;;;;;;-1.46;83.12;101893.20;1736172;82;20914;-75
2021/12/22 07:20:41;;;;;;;13.10;7.43;;;;;;;-1.44;83.19;101888.09;1736353;82;21539;-75
2021/12/22 07:23:08;;;;;;;12.83;7.90;;;;;;;-1.46;83.08;101894.48;1735994;82;20995;-71
2021/12/22 07:25:35;;;;;;;13.33;7.90;;;;;;;-1.41;83.45;101890.81;1736549;82;21501;-71
2021/12/22 07:28:03;;;;;;;13.33;8.50;;;;;;;-1.35;83.44;101902.17;1736074;82;21249;-73
2021/12/22 07:30:30;;;;;;;13.80;8.60;;;;;;;-1.30;83.58;101897.20;1737052;81;21498;-75
2021/12/22 07:32:57;;;;;;;13.83;8.20;;;;;;;-1.24;83.50;101899.12;1736211;82;21124;-76
2021/12/22 07:35:47;;;;;;;13.50;7.87;;;;;;;-1.17;83.58;101899.78;1736334;82;21568;-74
2021/12/22 07:38:30;;;;;;;20.17;11.40;;;;;;;-1.13;83.35;101905.09;1736838;81;21008;-75
2021/12/22 07:41:01;;;;;;;13.43;7.70;;;;;;;-1.08;83.28;101905.27;1750299;81;21164;-74
2021/12/22 07:43:30;;;;;;;8.27;5.63;;;;;;;-1.07;82.94;101907.00;1757113;81;21028;-73
2021/12/22 07:45:58;;;;;;;8.93;5.03;;;;;;;-1.03;82.89;101910.55;1738517;81;21083;-73
2021/12/22 07:48:25;;;;;;;9.27;5.37;;;;;;;-1.09;82.26;101906.48;1735695;81;21035;-73
2021/12/22 07:50:53;;;;;;;12.10;6.90;;;;;;;-1.09;82.47;101907.77;1735788;82;21544;-74
2021/12/22 07:53:21;;;;;;;15.80;8.73;;;;;;;-1.03;82.68;101907.98;1735788;82;21173;-72
2021/12/22 07:55:53;;;;;;;21.20;10.53;;;;;;;-1.00;82.37;101908.08;1738024;81;21094;-73
2021/12/22 07:58:18;;;;;;;9.08;5.95;;;;;;;-1.01;82.01;101903.34;1745340;81;21078;-77
2021/12/22 08:00:45;;;;;;;9.07;4.90;;;;;;;-1.00;82.26;101905.50;1755339;81;21084;-80
2021/12/22 08:03:12;;;;;;;8.50;5.00;;;;;;;-0.96;82.44;101900.94;1757269;81;21514;-79
2021/12/22 08:05:40;;;;;;;8.27;5.53;;;;;;;-0.89;82.45;101895.16;1753673;81;21596;-74
2021/12/22 08:08:07;;;;;;;8.33;4.87;;;;;;;-0.87;82.31;101897.38;1754231;81;21016;-73
2021/12/22 08:10:34;;;;;;;8.30;5.60;;;;;;;-0.83;82.12;101905.69;1755269;81;21043;-77
2021/12/22 08:13:02;;;;;;;9.13;5.97;;;;;;;-0.83;81.93;101902.21;1757592;81;21004;-76
2021/12/22 08:15:29;;;;;;;9.83;5.67;;;;;;;-0.87;81.76;101900.38;1730699;82;21055;-73
2021/12/22 08:17:56;;;;;;;9.23;6.03;;;;;;;-0.88;81.91;101901.20;1707169;84;21940;-72
2021/12/22 08:20:24;;;;;;;9.43;6.63;;;;;;;-0.81;82.20;101900.16;1706825;84;21460;-81
2021/12/22 08:22:51;;;;;;;8.07;5.70;;;;;;;-0.80;82.05;101894.20;1707082;84;21030;-73
2021/12/22 08:25:22;;;;;;;9.00;6.50;;;;;;;-0.77;81.87;101897.30;1706793;84;21043;-88
2021/12/22 08:27:49;;;;;;;11.40;7.13;;;;;;;-0.79;81.78;101897.23;1707107;84;21043;-77
2021/12/22 08:30:16;;;;;;;10.80;7.17;;;;;;;-0.75;82.03;101902.06;1706897;84;21095;-73
2021/12/22 08:32:44;;;;;;;9.47;5.87;;;;;;;-0.68;82.01;101894.59;1706944;84;20987;-73
2021/12/22 08:35:12;;;;;;;8.53;5.70;;;;;;;-0.69;81.31;101902.28;1706776;84;21058;-74
2021/12/22 08:40:26;;;;;;;22.47;13.23;;;;;;;-0.83;80.89;101908.27;1721319;83;21144;-86
2021/12/22 08:42:54;;;;;;;14.93;8.63;;;;;;;-0.81;80.96;101918.17;1721292;83;21987;-74
2021/12/22 08:45:22;;;;;;;78.13;41.00;;;;;;;-0.83;80.96;101912.13;1721066;83;21028;-74
2021/12/22 08:47:49;;;;;;;22.67;13.27;;;;;;;-0.81;80.88;101912.16;1721086;83;21032;-84
2021/12/22 08:50:18;;;;;;;19.00;11.03;;;;;;;-0.83;81.03;101911.22;1721276;83;21494;-74
2021/12/22 08:52:46;;;;;;;16.77;9.98;;;;;;;-0.83;80.99;101916.38;1721349;83;21032;-74
2021/12/22 08:55:15;;;;;;;12.87;8.13;;;;;;;-0.86;80.80;101911.13;1721141;83;21149;-74
2021/12/22 08:57:42;;;;;;;11.50;7.40;;;;;;;-0.88;80.79;101915.37;1720983;83;21064;-74
2021/12/22 09:00:12;;;;;;;18.80;9.73;;;;;;;-0.93;80.67;101914.78;1721274;83;21028;-78
2021/12/22 09:02:40;;;;;;;12.68;7.65;;;;;;;-0.90;80.93;101911.44;1721257;83;21040;-75
2021/12/22 09:05:08;;;;;;;13.63;8.33;;;;;;;-0.84;81.03;101922.36;1721027;83;21631;-74
2021/12/22 09:07:35;;;;;;;16.30;9.67;;;;;;;-0.80;81.01;101925.09;1721022;83;21139;-75
2021/12/22 09:10:04;;;;;;;15.43;9.43;;;;;;;-0.73;81.11;101924.45;1721243;83;21422;-78
2021/12/22 09:12:30;;;;;;;11.77;7.40;;;;;;;-0.56;81.07;101921.57;1721089;83;21111;-74
2021/12/22 09:14:57;;;;;;;21.90;11.73;;;;;;;-0.47;80.72;101927.05;1721166;83;21001;-76
2021/12/22 09:17:24;;;;;;;26.70;15.23;;;;;;;-0.40;80.71;101924.24;1721471;83;21308;-74
2021/12/22 09:19:53;;;;;;;27.63;16.17;;;;;;;-0.37;80.70;101924.34;1721207;83;21137;-74
2021/12/22 09:22:21;;;;;;;12.73;7.57;;;;;;;-0.39;80.51;101922.98;1721367;83;21024;-78
2021/12/22 09:24:48;;;;;;;12.97;7.73;;;;;;;-0.38;80.37;101935.06;1721235;83;21035;-71
2021/12/22 09:27:16;;;;;;;10.23;6.67;;;;;;;-0.42;80.42;101933.20;1721442;83;20988;-73
2021/12/22 09:29:43;;;;;;;11.70;8.17;;;;;;;-0.47;80.18;101932.20;1721186;83;21513;-74
2021/12/22 09:32:15;;;;;;;11.37;6.47;;;;;;;-0.49;80.43;101931.27;1721340;83;21079;-73
2021/12/22 09:34:43;;;;;;;9.87;6.10;;;;;;;-0.46;80.56;101927.08;1721012;83;21087;-73
2021/12/22 09:37:10;;;;;;;12.97;8.40;;;;;;;-0.47;80.21;101925.76;1721264;82;21039;-71
2021/12/22 09:39:39;;;;;;;12.27;8.13;;;;;;;-0.49;80.12;101923.53;1721226;83;21012;-71
2021/12/22 09:42:06;;;;;;;8.03;5.77;;;;;;;-0.54;80.05;101925.08;1721434;83;21012;-73
2021/12/22 09:44:38;;;;;;;16.90;11.43;;;;;;;-0.59;80.01;101917.20;1721092;83;21980;-71
2021/12/22 09:47:05;;;;;;;12.18;8.28;;;;;;;-0.60;79.74;101921.89;1712813;82;21017;-72
2021/12/22 09:49:46;;;;;;;11.70;7.67;;;;;;;-0.62;79.82;101915.81;1703722;84;21084;-72
2021/12/22 09:52:23;;;;;;;10.80;6.40;;;;;;;-0.63;79.82;101912.78;1701595;84;20983;-72
2021/12/22 09:54:53;;;;;;;9.23;6.23;;;;;;;-0.66;79.83;101910.11;1703792;84;21504;-72
2021/12/22 09:57:22;;;;;;;29.03;14.90;;;;;;;-0.69;80.00;101903.16;1703791;84;21121;-71
2021/12/22 09:59:52;;;;;;;18.27;9.83;;;;;;;-0.64;80.04;101901.13;1703676;84;21314;-74
2021/12/22 10:02:22;;;;;;;29.00;14.00;;;;;;;-0.64;79.86;101899.84;1703850;84;21496;-72
2021/12/22 10:04:49;;;;;;;;;;;;;;;-0.63;79.71;101897.75;1706206;84;21468;-71
2021/12/22 10:07:20;;;;;;;7.93;5.77;;;;;;;-0.62;79.70;101897.78;1703760;84;20538;-74
2021/12/22 10:09:48;;;;;;;10.13;6.33;;;;;;;-0.61;79.74;101890.54;1703608;84;21242;-71
2021/12/22 10:12:25;;;;;;;11.07;6.40;;;;;;;-0.62;79.63;101896.91;1703694;84;21073;-70
2021/12/22 10:15:01;;;;;;;9.50;6.30;;;;;;;-0.67;79.54;101890.31;1703594;84;21518;-72
2021/12/22 10:17:36;;;;;;;11.67;6.57;;;;;;;-0.68;79.67;101885.58;1703734;84;20962;-73
2021/12/22 10:20:17;;;;;;;12.07;6.73;;;;;;;-0.69;79.62;101885.55;1703575;84;21038;-76
2021/12/22 10:22:47;;;;;;;10.63;6.63;;;;;;;-0.76;79.44;101880.59;1703826;84;21132;-71
2021/12/22 10:25:20;;;;;;;10.15;6.33;;;;;;;-0.86;79.20;101878.95;1704019;84;21038;-72
2021/12/22 10:28:07;;;;;;;10.70;6.80;;;;;;;-0.92;79.28;101877.05;1703487;84;21030;-73
2021/12/22 10:30:43;;;;;;;12.87;7.57;;;;;;;-0.94;79.41;101872.28;1703913;84;21041;-73
2021/12/22 10:33:20;;;;;;;13.00;7.83;;;;;;;-0.96;79.39;101879.94;1703863;84;21315;-72
2021/12/22 10:35:54;;;;;;;9.40;6.40;;;;;;;-0.95;79.45;101880.80;1703981;84;21094;-75
2021/12/22 10:38:26;;;;;;;11.50;6.50;;;;;;;-0.98;79.30;101880.70;1717440;82;21539;-75
2021/12/22 10:40:57;;;;;;;14.23;9.00;;;;;;;-1.02;79.36;101877.16;1732729;82;21046;-74
2021/12/22 10:43:28;;;;;;;13.23;7.67;;;;;;;-0.99;79.46;101863.52;1733498;82;21472;-73
2021/12/22 10:46:00;;;;;;;11.07;7.03;;;;;;;-0.97;79.38;101860.56;1733681;82;21042;-73
2021/12/22 10:51:31;;;;;;;10.20;6.90;;;;;;;-0.92;79.22;101853.46;1733469;82;21560;-71
2021/12/22 10:54:00;;;;;;;11.27;7.50;;;;;;;-0.82;79.57;101852.08;1733341;82;21003;-71
2021/12/22 10:56:34;;;;;;;13.57;8.07;;;;;;;-0.64;79.64;101853.48;1733187;82;21516;-72
2021/12/22 10:59:20;;;;;;;10.70;6.80;;;;;;;-0.53;79.48;101846.56;1733450;82;21523;-73
2021/12/22 11:01:58;;;;;;;11.67;7.33;;;;;;;-0.48;79.35;101841.56;1733539;82;21097;-76
2021/12/22 11:04:29;;;;;;;11.83;7.47;;;;;;;-0.40;79.23;101850.83;1732921;82;21504;-75
2021/12/22 11:07:07;;;;;;;12.07;7.47;;;;;;;-0.38;79.08;101846.60;1733438;82;21432;-75
2021/12/22 11:09:36;;;;;;;12.90;7.67;;;;;;;-0.36;78.95;101850.98;1733497;82;21003;-75
2021/12/22 11:12:05;;;;;;;12.43;7.80;;;;;;;-0.34;78.92;101853.16;1733122;82;21303;-76
2021/12/22 11:14:37;;;;;;;11.90;6.73;;;;;;;-0.33;78.92;101847.20;1733401;82;21078;-76
2021/12/22 11:17:10;;;;;;;10.83;6.53;;;;;;;-0.32;78.73;101845.08;1733499;82;21533;-71
2021/12/22 11:19:57;;;;;;;9.53;6.87;;;;;;;-0.31;78.70;101840.79;1733178;82;21098;-72
2021/12/22 11:22:36;;;;;;;11.67;7.93;;;;;;;-0.31;78.59;101838.21;1733043;82;21059;-71
2021/12/22 11:24:54;;;;;;;11.25;7.35;;;;;;;-0.31;78.60;101835.22;1725604;82;21050;-76
2021/12/22 11:27:25;;;;;;;47.07;23.63;;;;;;;-0.30;78.48;101834.41;1733123;82;21173;-71
2021/12/22 11:29:58;;;;;;;13.83;7.63;;;;;;;-0.34;78.46;101834.26;1733469;82;21568;-72
2021/12/22 11:32:30;;;;;;;13.23;8.50;;;;;;;-0.36;78.48;101835.52;1733243;82;21015;-75
2021/12/22 11:35:00;;;;;;;13.23;8.23;;;;;;;-0.39;78.41;101832.82;1733533;82;20998;-71
2021/12/22 11:37:28;;;;;;;;;;;;;;;-0.39;78.63;101832.82;1735839;82;21572;-73